Flinter Rose — PBUB — position and weather

sailwx.info

Track history (hours):
 
Tides and Currents Weather Stations Pressure Air Temp Water Temp Dewpoint Dewpoint Depression Visibility Wind Speed Wind Dir Waves Ship Positions

Flinter Rose

Last reported at 2016-May-02 01:33 UTC. Time now 2016-May-03 14:27 UTC.
Position N 49°58' W 002°56'.

Length 101 m; draft 6.3 m.

Type: Cargo ship. MMSI: 246227000.

Date/timePositionNaut miles runAvg speedWind from/ knotsBaromVisibWave heightAir tempDewpointWater temp
2016-May-02 01:33N 49°58' W 002°56'107 9.7
2016-May-01 14:33N 50°29' W 000°16'9 8.9
2016-May-01 13:33N 50°31' W 000°03'10 9.5
2016-May-01 12:33N 50°34' E 000°12'5510.1
2016-May-01 07:03N 51°04' E 001°26'4 8.2
2016-May-01 06:33N 51°06' E 001°31'9 8.7
2016-May-01 05:33N 51°12' E 001°41'9 9.3
2016-May-01 04:33N 51°19' E 001°51'9 9.1
2016-May-01 03:33N 51°26' E 002°01'10 9.6
2016-May-01 02:33N 51°21' E 002°14'1210.6
2016-May-01 01:25N 51°23' E 002°34'8 8.5
2016-May-01 00:31N 51°23' E 002°46'9 9.7
2016-Apr-30 23:33N 51°24' E 003°01'1111.2
2016-Apr-30 22:33N 51°25' E 003°18'1211.6
2016-Apr-30 21:34N 51°26' E 003°37'10 9.7
2016-Apr-30 20:33N 51°20' E 003°49'2 1.5
2016-Apr-30 19:34N 51°19' E 003°50'7 6.6
2016-Apr-30 18:34N 51°12' E 003°48'2 1.6
2016-Apr-30 17:32N 51°11' E 003°48'0 0.0
2016-Apr-30 16:32N 51°11' E 003°48'0 0.0
2016-Apr-30 15:32N 51°11' E 003°48'0 0.0
2016-Apr-30 14:32N 51°11' E 003°48'0 0.0
2016-Apr-30 13:32N 51°11' E 003°48'0 0.0
2016-Apr-30 12:32N 51°11' E 003°48'0 0.0
2016-Apr-30 11:32N 51°11' E 003°48'0 0.0
2016-Apr-30 10:32N 51°11' E 003°48'0 0.0
2016-Apr-30 09:29N 51°11' E 003°48'0 0.0
2016-Apr-30 08:32N 51°11' E 003°48'0 0.0
2016-Apr-30 07:32N 51°11' E 003°48'0 0.0
2016-Apr-30 06:31N 51°11' E 003°48'0 0.0
2016-Apr-30 05:31N 51°11' E 003°48'0 0.0
2016-Apr-30 04:31N 51°11' E 003°48'0 0.0
2016-Apr-30 03:31N 51°11' E 003°48'0 0.0
2016-Apr-30 02:31N 51°11' E 003°48'0 0.0
2016-Apr-30 01:31N 51°11' E 003°48'0 0.0
2016-Apr-30 00:31N 51°11' E 003°48'0 0.0
2016-Apr-29 23:31N 51°11' E 003°48'0 0.0
2016-Apr-29 22:31N 51°11' E 003°48'0 0.0
2016-Apr-29 21:31N 51°11' E 003°48'0 0.0
2016-Apr-29 20:31N 51°11' E 003°48'0 0.0
2016-Apr-29 19:31N 51°11' E 003°48'0 0.0
2016-Apr-29 18:31N 51°11' E 003°48'0 0.0
2016-Apr-29 17:31N 51°11' E 003°48'0 0.0
2016-Apr-29 16:31N 51°11' E 003°48'0 0.0
2016-Apr-29 15:31N 51°11' E 003°48'0 0.0
2016-Apr-29 14:31N 51°11' E 003°48'0 0.0
2016-Apr-29 13:31N 51°11' E 003°48'0 0.0
2016-Apr-29 12:31N 51°11' E 003°48'0 0.0
2016-Apr-29 11:31N 51°11' E 003°48'0 0.0
2016-Apr-29 10:33N 51°11' E 003°48'1 1.1
2016-Apr-29 09:31N 51°10' E 003°47'0 0.0
2016-Apr-29 08:31N 51°10' E 003°47'0 0.0
2016-Apr-29 07:31N 51°10' E 003°47'0 0.0
2016-Apr-29 06:31N 51°10' E 003°47'0 0.0
2016-Apr-29 05:31N 51°10' E 003°47'0 0.0
2016-Apr-29 04:31N 51°10' E 003°47'0 0.0
2016-Apr-29 03:30N 51°10' E 003°47'0 0.0
2016-Apr-29 02:33N 51°10' E 003°47'0 0.0
2016-Apr-29 01:33N 51°10' E 003°47'0 0.0
2016-Apr-29 00:33N 51°10' E 003°47'0 0.0
2016-Apr-28 23:33N 51°10' E 003°47'0 0.0
2016-Apr-28 22:32N 51°10' E 003°47'0 0.0
2016-Apr-28 21:32N 51°10' E 003°47'0 0.0
2016-Apr-28 20:32N 51°10' E 003°47'0 0.0
2016-Apr-28 19:32N 51°10' E 003°47'0 0.0
2016-Apr-28 18:32N 51°10' E 003°47'0 0.0
2016-Apr-28 17:32N 51°10' E 003°47'0 0.0
2016-Apr-28 16:32N 51°10' E 003°47'1 1.2
2016-Apr-28 15:33N 51°11' E 003°48'7 6.9
2016-Apr-28 14:34N 51°17' E 003°50'3 2.9
2016-Apr-28 13:33N 51°20' E 003°49'2 2.2
2016-Apr-28 12:34N 51°22' E 003°46'6 5.9
2016-Apr-28 11:33N 51°25' E 003°38'1 1.4
2016-Apr-28 10:31N 51°25' E 003°36'0 0.0
2016-Apr-28 09:31N 51°25' E 003°36'0 0.0
2016-Apr-28 08:31N 51°25' E 003°36'0 0.1
2016-Apr-28 07:31N 51°25' E 003°36'0 0.0
2016-Apr-28 06:28N 51°25' E 003°36'0 0.1
2016-Apr-28 05:31N 51°25' E 003°36'0 0.0
2016-Apr-28 04:31N 51°25' E 003°36'0 0.0
2016-Apr-28 03:31N 51°25' E 003°36'0 0.1
2016-Apr-28 02:31N 51°25' E 003°36'0 0.0
2016-Apr-28 01:28N 51°25' E 003°36'0 0.0
2016-Apr-28 00:31N 51°25' E 003°36'0 0.1
2016-Apr-27 23:31N 51°25' E 003°36'0 0.0
2016-Apr-27 22:31N 51°25' E 003°36'0 0.0
2016-Apr-27 21:31N 51°25' E 003°36'0 0.0
2016-Apr-27 20:31N 51°25' E 003°36'0 0.0
2016-Apr-27 19:31N 51°25' E 003°36'0 0.2
2016-Apr-27 18:33N 51°25' E 003°36'3 2.9
2016-Apr-27 17:33N 51°25' E 003°32'0 0.2
2016-Apr-27 16:32N 51°25' E 003°31'0 0.0
2016-Apr-27 15:31N 51°25' E 003°31'0 0.0
2016-Apr-27 14:25N 51°25' E 003°31'0 0.0
2016-Apr-27 13:28N 51°25' E 003°31'0 0.0
2016-Apr-27 12:31N 51°25' E 003°31'0 0.0
2016-Apr-27 11:28N 51°25' E 003°31'1 0.9
2016-Apr-27 10:33N 51°25' E 003°30'8 8.3
2016-Apr-27 09:33N 51°24' E 003°17'9 8.9
2016-Apr-27 08:33N 51°22' E 003°03'1010.0
2016-Apr-27 07:33N 51°22' E 002°47'1010.1
2016-Apr-27 06:33N 51°22' E 002°31'1010.1
2016-Apr-27 05:33N 51°17' E 002°16'9 9.5
2016-Apr-27 04:33N 51°12' E 002°04'10 9.7
2016-Apr-27 03:33N 51°08' E 001°50'10 9.6
2016-Apr-27 02:33N 51°01' E 001°38'1110.9
2016-Apr-27 01:31N 50°52' E 001°28'55 9.3
2016-Apr-26 19:33N 50°20' E 000°17'10 9.4
2016-Apr-26 18:33N 50°17' E 000°03'19 9.5
2016-Apr-26 16:33N 50°01' W 000°15'10 9.6
2016-Apr-26 15:33N 49°54' W 000°24'9 9.2
2016-Apr-26 14:34N 49°45' W 000°29'1010.4
2016-Apr-26 13:34N 49°35' W 000°25'9 9.1
2016-Apr-26 12:33N 49°31' W 000°12'9 9.3
2016-Apr-26 11:33N 49°27' E 000°01'9 8.5
2016-Apr-26 10:31N 49°26' E 000°15'0 0.0
2016-Apr-26 09:31N 49°26' E 000°15'0 0.0
2016-Apr-26 08:31N 49°26' E 000°15'0 0.0
2016-Apr-26 07:33N 49°26' E 000°15'0 0.0
2016-Apr-26 06:32N 49°26' E 000°15'0 0.0
2016-Apr-26 05:32N 49°26' E 000°15'0 0.0
2016-Apr-26 04:29N 49°26' E 000°15'0 0.0
2016-Apr-26 03:32N 49°26' E 000°15'0 0.0
2016-Apr-26 02:32N 49°26' E 000°15'0 0.0
2016-Apr-26 01:32N 49°26' E 000°15'0 0.0
2016-Apr-26 00:32N 49°26' E 000°15'0 0.0
2016-Apr-25 23:32N 49°26' E 000°15'0 0.0
2016-Apr-25 22:32N 49°26' E 000°15'0 0.0
2016-Apr-25 21:32N 49°26' E 000°15'0 0.0
2016-Apr-25 20:32N 49°26' E 000°15'0 0.0
2016-Apr-25 19:32N 49°26' E 000°15'0 0.0
2016-Apr-25 18:32N 49°26' E 000°15'0 0.0
2016-Apr-25 17:32N 49°26' E 000°15'0 0.0
2016-Apr-25 16:32N 49°26' E 000°15'0 0.0
2016-Apr-25 15:29N 49°26' E 000°15'0 0.0
2016-Apr-25 14:32N 49°26' E 000°15'0 0.0
2016-Apr-25 13:32N 49°26' E 000°15'0 0.0
2016-Apr-25 12:32N 49°26' E 000°15'0 0.0
2016-Apr-25 11:32N 49°26' E 000°15'0 0.0
2016-Apr-25 10:32N 49°26' E 000°15'0 0.0
2016-Apr-25 09:32N 49°26' E 000°15'0 0.0
2016-Apr-25 08:32N 49°26' E 000°15'0 0.0
2016-Apr-25 07:32N 49°26' E 000°15'0 0.0
2016-Apr-25 06:32N 49°26' E 000°15'0 0.0
2016-Apr-25 05:32N 49°26' E 000°15'0 0.0
2016-Apr-25 04:32N 49°26' E 000°15'0 0.0
2016-Apr-25 03:32N 49°26' E 000°15'0 0.0
2016-Apr-25 02:33N 49°26' E 000°15'0 0.0
2016-Apr-25 01:32N 49°26' E 000°15'0 0.0
2016-Apr-25 00:32N 49°26' E 000°15'0 0.0
2016-Apr-24 23:32N 49°26' E 000°15'0 0.0
2016-Apr-24 22:29N 49°26' E 000°15'0 0.0
2016-Apr-24 21:31N 49°26' E 000°15'0 0.0
2016-Apr-24 20:32N 49°26' E 000°15'0 0.0
2016-Apr-24 19:32N 49°26' E 000°15'0 0.0
2016-Apr-24 18:32N 49°26' E 000°15'0 0.0
2016-Apr-24 17:32N 49°26' E 000°15'0 0.0
2016-Apr-24 16:32N 49°26' E 000°15'0 0.0
2016-Apr-24 15:32N 49°26' E 000°15'0 0.0
2016-Apr-24 14:32N 49°26' E 000°15'0 0.0
2016-Apr-24 13:32N 49°26' E 000°15'0 0.0
2016-Apr-24 12:32N 49°26' E 000°15'0 0.0
2016-Apr-24 11:32N 49°26' E 000°15'0 0.0
2016-Apr-24 10:32N 49°26' E 000°15'0 0.0
2016-Apr-24 09:31N 49°26' E 000°15'0 0.0
2016-Apr-24 08:31N 49°26' E 000°15'0 0.0
2016-Apr-24 07:32N 49°26' E 000°15'0 0.0
2016-Apr-24 06:30N 49°26' E 000°15'0 0.0
2016-Apr-24 05:31N 49°26' E 000°15'0 0.0
2016-Apr-24 04:31N 49°26' E 000°15'0 0.0
2016-Apr-24 03:31N 49°26' E 000°15'0 0.0
2016-Apr-24 02:33N 49°26' E 000°15'0 0.0
2016-Apr-24 01:31N 49°26' E 000°15'0 0.0
2016-Apr-24 00:32N 49°26' E 000°15'0 0.0
2016-Apr-23 23:33N 49°26' E 000°15'0 0.0
2016-Apr-23 22:33N 49°26' E 000°15'0 0.0
2016-Apr-23 21:32N 49°26' E 000°15'0 0.0
2016-Apr-23 20:33N 49°26' E 000°15'0 0.0
2016-Apr-23 19:32N 49°26' E 000°15'0 0.0
2016-Apr-23 18:31N 49°26' E 000°15'0 0.0
2016-Apr-23 17:32N 49°26' E 000°15'0 0.0
2016-Apr-23 16:31N 49°26' E 000°15'0 0.0
2016-Apr-23 15:31N 49°26' E 000°15'0 0.0
2016-Apr-23 14:32N 49°26' E 000°15'0 0.0
2016-Apr-23 13:30N 49°26' E 000°15'0 0.0
2016-Apr-23 12:31N 49°26' E 000°15'0 0.0
2016-Apr-23 11:33N 49°26' E 000°15'0 0.0
2016-Apr-23 10:33N 49°26' E 000°15'0 0.0
2016-Apr-23 09:33N 49°26' E 000°15'0 0.0
2016-Apr-23 08:31N 49°26' E 000°15'1 0.6
2016-Apr-23 07:33N 49°26' E 000°14'1111.2
2016-Apr-23 06:33N 49°29' W 000°03'9 8.6
2016-Apr-23 05:33N 49°32' W 000°15'8 8.1
2016-Apr-23 04:34N 49°36' W 000°26'7 7.2
2016-Apr-23 03:33N 49°38' W 000°37'7 6.7
2016-Apr-23 02:33N 49°41' W 000°46'6 5.8
2016-Apr-23 01:33N 49°44' W 000°54'86 9.5
2016-Apr-22 16:33N 49°42' W 003°07'105 9.6
2016-Apr-22 05:33N 48°51' W 005°28'  
Track history (hours):
 
Tides and Currents Weather Stations Pressure Air Temp Water Temp Dewpoint Dewpoint Depression Visibility Wind Speed Wind Dir Waves Ship Positions

Flinter Rose

Last reported at 2016-May-02 01:33 UTC. Time now 2016-May-03 14:27 UTC.
Position N 49°58' W 002°56'.

Length 101 m; draft 6.3 m.

Type: Cargo ship. MMSI: 246227000.

Date/timePositionNaut miles runAvg speedWind from/ knotsBaromVisibWave heightAir tempDewpointWater temp
2016-May-02 01:33N 49°58' W 002°56'107 9.7
2016-May-01 14:33N 50°29' W 000°16'9 8.9
2016-May-01 13:33N 50°31' W 000°03'10 9.5
2016-May-01 12:33N 50°34' E 000°12'5510.1
2016-May-01 07:03N 51°04' E 001°26'4 8.2
2016-May-01 06:33N 51°06' E 001°31'9 8.7
2016-May-01 05:33N 51°12' E 001°41'9 9.3
2016-May-01 04:33N 51°19' E 001°51'9 9.1
2016-May-01 03:33N 51°26' E 002°01'10 9.6
2016-May-01 02:33N 51°21' E 002°14'1210.6
2016-May-01 01:25N 51°23' E 002°34'8 8.5
2016-May-01 00:31N 51°23' E 002°46'9 9.7
2016-Apr-30 23:33N 51°24' E 003°01'1111.2
2016-Apr-30 22:33N 51°25' E 003°18'1211.6
2016-Apr-30 21:34N 51°26' E 003°37'10 9.7
2016-Apr-30 20:33N 51°20' E 003°49'2 1.5
2016-Apr-30 19:34N 51°19' E 003°50'7 6.6
2016-Apr-30 18:34N 51°12' E 003°48'2 1.6
2016-Apr-30 17:32N 51°11' E 003°48'0 0.0
2016-Apr-30 16:32N 51°11' E 003°48'0 0.0
2016-Apr-30 15:32N 51°11' E 003°48'0 0.0
2016-Apr-30 14:32N 51°11' E 003°48'0 0.0
2016-Apr-30 13:32N 51°11' E 003°48'0 0.0
2016-Apr-30 12:32N 51°11' E 003°48'0 0.0
2016-Apr-30 11:32N 51°11' E 003°48'0 0.0
2016-Apr-30 10:32N 51°11' E 003°48'0 0.0
2016-Apr-30 09:29N 51°11' E 003°48'0 0.0
2016-Apr-30 08:32N 51°11' E 003°48'0 0.0
2016-Apr-30 07:32N 51°11' E 003°48'0 0.0
2016-Apr-30 06:31N 51°11' E 003°48'0 0.0
2016-Apr-30 05:31N 51°11' E 003°48'0 0.0
2016-Apr-30 04:31N 51°11' E 003°48'0 0.0
2016-Apr-30 03:31N 51°11' E 003°48'0 0.0
2016-Apr-30 02:31N 51°11' E 003°48'0 0.0
2016-Apr-30 01:31N 51°11' E 003°48'0 0.0
2016-Apr-30 00:31N 51°11' E 003°48'0 0.0
2016-Apr-29 23:31N 51°11' E 003°48'0 0.0
2016-Apr-29 22:31N 51°11' E 003°48'0 0.0
2016-Apr-29 21:31N 51°11' E 003°48'0 0.0
2016-Apr-29 20:31N 51°11' E 003°48'0 0.0
2016-Apr-29 19:31N 51°11' E 003°48'0 0.0
2016-Apr-29 18:31N 51°11' E 003°48'0 0.0
2016-Apr-29 17:31N 51°11' E 003°48'0 0.0
2016-Apr-29 16:31N 51°11' E 003°48'0 0.0
2016-Apr-29 15:31N 51°11' E 003°48'0 0.0
2016-Apr-29 14:31N 51°11' E 003°48'0 0.0
2016-Apr-29 13:31N 51°11' E 003°48'0 0.0
2016-Apr-29 12:31N 51°11' E 003°48'0 0.0
2016-Apr-29 11:31N 51°11' E 003°48'0 0.0
2016-Apr-29 10:33N 51°11' E 003°48'1 1.1
2016-Apr-29 09:31N 51°10' E 003°47'0 0.0
2016-Apr-29 08:31N 51°10' E 003°47'0 0.0
2016-Apr-29 07:31N 51°10' E 003°47'0 0.0
2016-Apr-29 06:31N 51°10' E 003°47'0 0.0
2016-Apr-29 05:31N 51°10' E 003°47'0 0.0
2016-Apr-29 04:31N 51°10' E 003°47'0 0.0
2016-Apr-29 03:30N 51°10' E 003°47'0 0.0
2016-Apr-29 02:33N 51°10' E 003°47'0 0.0
2016-Apr-29 01:33N 51°10' E 003°47'0 0.0
2016-Apr-29 00:33N 51°10' E 003°47'0 0.0
2016-Apr-28 23:33N 51°10' E 003°47'0 0.0
2016-Apr-28 22:32N 51°10' E 003°47'0 0.0
2016-Apr-28 21:32N 51°10' E 003°47'0 0.0
2016-Apr-28 20:32N 51°10' E 003°47'0 0.0
2016-Apr-28 19:32N 51°10' E 003°47'0 0.0
2016-Apr-28 18:32N 51°10' E 003°47'0 0.0
2016-Apr-28 17:32N 51°10' E 003°47'0 0.0
2016-Apr-28 16:32N 51°10' E 003°47'1 1.2
2016-Apr-28 15:33N 51°11' E 003°48'7 6.9
2016-Apr-28 14:34N 51°17' E 003°50'3 2.9
2016-Apr-28 13:33N 51°20' E 003°49'2 2.2
2016-Apr-28 12:34N 51°22' E 003°46'6 5.9
2016-Apr-28 11:33N 51°25' E 003°38'1 1.4
2016-Apr-28 10:31N 51°25' E 003°36'0 0.0
2016-Apr-28 09:31N 51°25' E 003°36'0 0.0
2016-Apr-28 08:31N 51°25' E 003°36'0 0.1
2016-Apr-28 07:31N 51°25' E 003°36'0 0.0
2016-Apr-28 06:28N 51°25' E 003°36'0 0.1
2016-Apr-28 05:31N 51°25' E 003°36'0 0.0
2016-Apr-28 04:31N 51°25' E 003°36'0 0.0
2016-Apr-28 03:31N 51°25' E 003°36'0 0.1
2016-Apr-28 02:31N 51°25' E 003°36'0 0.0
2016-Apr-28 01:28N 51°25' E 003°36'0 0.0
2016-Apr-28 00:31N 51°25' E 003°36'0 0.1
2016-Apr-27 23:31N 51°25' E 003°36'0 0.0
2016-Apr-27 22:31N 51°25' E 003°36'0 0.0
2016-Apr-27 21:31N 51°25' E 003°36'0 0.0
2016-Apr-27 20:31N 51°25' E 003°36'0 0.0
2016-Apr-27 19:31N 51°25' E 003°36'0 0.2
2016-Apr-27 18:33N 51°25' E 003°36'3 2.9
2016-Apr-27 17:33N 51°25' E 003°32'0 0.2
2016-Apr-27 16:32N 51°25' E 003°31'0 0.0
2016-Apr-27 15:31N 51°25' E 003°31'0 0.0
2016-Apr-27 14:25N 51°25' E 003°31'0 0.0
2016-Apr-27 13:28N 51°25' E 003°31'0 0.0
2016-Apr-27 12:31N 51°25' E 003°31'0 0.0
2016-Apr-27 11:28N 51°25' E 003°31'1 0.9
2016-Apr-27 10:33N 51°25' E 003°30'8 8.3
2016-Apr-27 09:33N 51°24' E 003°17'9 8.9
2016-Apr-27 08:33N 51°22' E 003°03'1010.0
2016-Apr-27 07:33N 51°22' E 002°47'1010.1
2016-Apr-27 06:33N 51°22' E 002°31'1010.1
2016-Apr-27 05:33N 51°17' E 002°16'9 9.5
2016-Apr-27 04:33N 51°12' E 002°04'10 9.7
2016-Apr-27 03:33N 51°08' E 001°50'10 9.6
2016-Apr-27 02:33N 51°01' E 001°38'1110.9
2016-Apr-27 01:31N 50°52' E 001°28'55 9.3
2016-Apr-26 19:33N 50°20' E 000°17'10 9.4
2016-Apr-26 18:33N 50°17' E 000°03'19 9.5
2016-Apr-26 16:33N 50°01' W 000°15'10 9.6
2016-Apr-26 15:33N 49°54' W 000°24'9 9.2
2016-Apr-26 14:34N 49°45' W 000°29'1010.4
2016-Apr-26 13:34N 49°35' W 000°25'9 9.1
2016-Apr-26 12:33N 49°31' W 000°12'9 9.3
2016-Apr-26 11:33N 49°27' E 000°01'9 8.5
2016-Apr-26 10:31N 49°26' E 000°15'0 0.0
2016-Apr-26 09:31N 49°26' E 000°15'0 0.0
2016-Apr-26 08:31N 49°26' E 000°15'0 0.0
2016-Apr-26 07:33N 49°26' E 000°15'0 0.0
2016-Apr-26 06:32N 49°26' E 000°15'0 0.0
2016-Apr-26 05:32N 49°26' E 000°15'0 0.0
2016-Apr-26 04:29N 49°26' E 000°15'0 0.0
2016-Apr-26 03:32N 49°26' E 000°15'0 0.0
2016-Apr-26 02:32N 49°26' E 000°15'0 0.0
2016-Apr-26 01:32N 49°26' E 000°15'0 0.0
2016-Apr-26 00:32N 49°26' E 000°15'0 0.0
2016-Apr-25 23:32N 49°26' E 000°15'0 0.0
2016-Apr-25 22:32N 49°26' E 000°15'0 0.0
2016-Apr-25 21:32N 49°26' E 000°15'0 0.0
2016-Apr-25 20:32N 49°26' E 000°15'0 0.0
2016-Apr-25 19:32N 49°26' E 000°15'0 0.0
2016-Apr-25 18:32N 49°26' E 000°15'0 0.0
2016-Apr-25 17:32N 49°26' E 000°15'0 0.0
2016-Apr-25 16:32N 49°26' E 000°15'0 0.0
2016-Apr-25 15:29N 49°26' E 000°15'0 0.0
2016-Apr-25 14:32N 49°26' E 000°15'0 0.0
2016-Apr-25 13:32N 49°26' E 000°15'0 0.0
2016-Apr-25 12:32N 49°26' E 000°15'0 0.0
2016-Apr-25 11:32N 49°26' E 000°15'0 0.0
2016-Apr-25 10:32N 49°26' E 000°15'0 0.0
2016-Apr-25 09:32N 49°26' E 000°15'0 0.0
2016-Apr-25 08:32N 49°26' E 000°15'0 0.0
2016-Apr-25 07:32N 49°26' E 000°15'0 0.0
2016-Apr-25 06:32N 49°26' E 000°15'0 0.0
2016-Apr-25 05:32N 49°26' E 000°15'0 0.0
2016-Apr-25 04:32N 49°26' E 000°15'0 0.0
2016-Apr-25 03:32N 49°26' E 000°15'0 0.0
2016-Apr-25 02:33N 49°26' E 000°15'0 0.0
2016-Apr-25 01:32N 49°26' E 000°15'0 0.0
2016-Apr-25 00:32N 49°26' E 000°15'0 0.0
2016-Apr-24 23:32N 49°26' E 000°15'0 0.0
2016-Apr-24 22:29N 49°26' E 000°15'0 0.0
2016-Apr-24 21:31N 49°26' E 000°15'0 0.0
2016-Apr-24 20:32N 49°26' E 000°15'0 0.0
2016-Apr-24 19:32N 49°26' E 000°15'0 0.0
2016-Apr-24 18:32N 49°26' E 000°15'0 0.0
2016-Apr-24 17:32N 49°26' E 000°15'0 0.0
2016-Apr-24 16:32N 49°26' E 000°15'0 0.0
2016-Apr-24 15:32N 49°26' E 000°15'0 0.0
2016-Apr-24 14:32N 49°26' E 000°15'0 0.0
2016-Apr-24 13:32N 49°26' E 000°15'0 0.0
2016-Apr-24 12:32N 49°26' E 000°15'0 0.0
2016-Apr-24 11:32N 49°26' E 000°15'0 0.0
2016-Apr-24 10:32N 49°26' E 000°15'0 0.0
2016-Apr-24 09:31N 49°26' E 000°15'0 0.0
2016-Apr-24 08:31N 49°26' E 000°15'0 0.0
2016-Apr-24 07:32N 49°26' E 000°15'0 0.0
2016-Apr-24 06:30N 49°26' E 000°15'0 0.0
2016-Apr-24 05:31N 49°26' E 000°15'0 0.0
2016-Apr-24 04:31N 49°26' E 000°15'0 0.0
2016-Apr-24 03:31N 49°26' E 000°15'0 0.0
2016-Apr-24 02:33N 49°26' E 000°15'0 0.0
2016-Apr-24 01:31N 49°26' E 000°15'0 0.0
2016-Apr-24 00:32N 49°26' E 000°15'0 0.0
2016-Apr-23 23:33N 49°26' E 000°15'0 0.0
2016-Apr-23 22:33N 49°26' E 000°15'0 0.0
2016-Apr-23 21:32N 49°26' E 000°15'0 0.0
2016-Apr-23 20:33N 49°26' E 000°15'0 0.0
2016-Apr-23 19:32N 49°26' E 000°15'0 0.0
2016-Apr-23 18:31N 49°26' E 000°15'0 0.0
2016-Apr-23 17:32N 49°26' E 000°15'0 0.0
2016-Apr-23 16:31N 49°26' E 000°15'0 0.0
2016-Apr-23 15:31N 49°26' E 000°15'0 0.0
2016-Apr-23 14:32N 49°26' E 000°15'0 0.0
2016-Apr-23 13:30N 49°26' E 000°15'0 0.0
2016-Apr-23 12:31N 49°26' E 000°15'0 0.0
2016-Apr-23 11:33N 49°26' E 000°15'0 0.0
2016-Apr-23 10:33N 49°26' E 000°15'0 0.0
2016-Apr-23 09:33N 49°26' E 000°15'0 0.0
2016-Apr-23 08:31N 49°26' E 000°15'1 0.6
2016-Apr-23 07:33N 49°26' E 000°14'1111.2
2016-Apr-23 06:33N 49°29' W 000°03'9 8.6
2016-Apr-23 05:33N 49°32' W 000°15'8 8.1
2016-Apr-23 04:34N 49°36' W 000°26'7 7.2
2016-Apr-23 03:33N 49°38' W 000°37'7 6.7
2016-Apr-23 02:33N 49°41' W 000°46'6 5.8
2016-Apr-23 01:33N 49°44' W 000°54'86 9.5
2016-Apr-22 16:33N 49°42' W 003°07'105 9.6
2016-Apr-22 05:33N 48°51' W 005°28'  

Dump ship's entire track history